createdAt,value
2018-11-11T00:00:05.836Z,95.98
2018-11-11T00:02:32.720Z,97.05
2018-11-11T00:04:59.600Z,97.01
2018-11-11T00:07:26.514Z,97.49
2018-11-11T00:09:53.378Z,98.47
2018-11-11T00:12:20.423Z,98.72
2018-11-11T00:14:47.345Z,98.59
2018-11-11T00:17:14.202Z,99.05
2018-11-11T00:19:41.137Z,100.00
2018-11-11T00:22:08.083Z,100.00
2018-11-11T00:24:35.334Z,100.00
2018-11-11T00:27:02.318Z,100.00
2018-11-11T00:29:29.238Z,100.00
2018-11-11T00:31:56.171Z,100.00
2018-11-11T00:34:23.118Z,100.00
2018-11-11T00:36:50.055Z,100.00
2018-11-11T00:39:16.922Z,100.00
2018-11-11T00:41:43.848Z,100.00
2018-11-11T00:44:10.813Z,98.56
2018-11-11T00:46:37.735Z,98.14
2018-11-11T00:49:05.239Z,97.33
2018-11-11T00:51:32.142Z,96.65
2018-11-11T00:53:59.078Z,96.39
2018-11-11T00:56:25.922Z,95.85
2018-11-11T00:58:52.818Z,96.18
2018-11-11T01:01:19.714Z,96.99
2018-11-11T01:03:46.658Z,95.90
2018-11-11T01:06:13.595Z,96.63
2018-11-11T01:08:40.454Z,95.68
2018-11-11T01:11:07.390Z,96.81
2018-11-11T01:13:34.228Z,96.87
2018-11-11T01:16:01.083Z,97.70
2018-11-11T01:18:28.019Z,98.20
2018-11-11T01:20:54.870Z,98.37
2018-11-11T01:23:21.847Z,98.57
2018-11-11T01:25:48.746Z,98.22
2018-11-11T01:28:15.615Z,97.14
2018-11-11T01:30:42.538Z,97.58
2018-11-11T01:33:09.478Z,97.37
2018-11-11T01:35:36.446Z,97.12
2018-11-11T01:38:03.362Z,96.49
2018-11-11T01:40:30.230Z,96.24
2018-11-11T01:42:57.159Z,96.09
2018-11-11T01:45:24.118Z,96.80
2018-11-11T01:47:51.050Z,96.08
2018-11-11T01:50:17.986Z,95.42
2018-11-11T01:52:44.845Z,96.41
2018-11-11T01:55:12.502Z,96.56
2018-11-11T01:57:39.530Z,95.87
2018-11-11T02:00:08.858Z,96.35
2018-11-11T02:02:36.063Z,96.56
2018-11-11T02:05:03.035Z,96.09
2018-11-11T02:07:29.881Z,94.11
2018-11-11T02:09:56.913Z,95.40
2018-11-11T02:12:23.769Z,95.93
2018-11-11T02:14:50.623Z,96.56
2018-11-11T02:17:17.558Z,96.54
2018-11-11T02:19:45.443Z,96.52
2018-11-11T02:22:12.642Z,96.54
2018-11-11T02:24:39.531Z,95.99
2018-11-11T02:27:06.582Z,95.73
2018-11-11T02:29:33.507Z,96.79
2018-11-11T02:32:00.380Z,96.36
2018-11-11T02:34:27.300Z,96.25
2018-11-11T02:36:54.254Z,95.52
2018-11-11T02:39:21.196Z,96.80
2018-11-11T02:41:48.144Z,97.85
2018-11-11T02:44:15.075Z,97.54
2018-11-11T02:46:41.938Z,97.40
2018-11-11T02:49:08.878Z,97.37
2018-11-11T02:51:36.011Z,97.45
2018-11-11T02:54:02.867Z,98.95
2018-11-11T02:56:29.806Z,96.38
2018-11-11T02:58:56.790Z,97.15
2018-11-11T03:01:23.698Z,97.60
2018-11-11T03:03:50.657Z,97.75
2018-11-11T03:06:17.596Z,96.99
2018-11-11T03:08:44.531Z,97.12
2018-11-11T03:11:11.475Z,97.15
2018-11-11T03:13:38.446Z,97.23
2018-11-11T03:16:05.378Z,97.17
2018-11-11T03:18:32.308Z,96.69
2018-11-11T03:20:59.271Z,97.08
2018-11-11T03:23:26.205Z,95.72
2018-11-11T03:25:53.136Z,96.63
2018-11-11T03:28:19.994Z,96.33
2018-11-11T03:30:46.975Z,96.33
2018-11-11T03:33:13.886Z,96.60
2018-11-11T03:35:40.830Z,96.96
2018-11-11T03:38:07.783Z,96.93
2018-11-11T03:40:34.703Z,96.42
2018-11-11T03:43:01.563Z,96.26
2018-11-11T03:45:28.499Z,96.57
2018-11-11T03:47:55.434Z,97.11
2018-11-11T03:50:22.291Z,96.63
2018-11-11T03:52:49.231Z,96.39
2018-11-11T03:55:16.257Z,96.35
2018-11-11T03:57:43.171Z,96.54
2018-11-11T04:00:11.426Z,96.46
2018-11-11T04:02:38.359Z,94.60
2018-11-11T04:05:05.736Z,95.23
2018-11-11T04:07:32.631Z,96.58
2018-11-11T04:09:59.518Z,96.14
2018-11-11T04:12:26.431Z,95.09
2018-11-11T04:14:53.466Z,96.32
2018-11-11T04:17:20.350Z,96.42
2018-11-11T04:19:47.258Z,96.76
2018-11-11T04:22:16.965Z,97.26
2018-11-11T04:24:43.854Z,95.99
2018-11-11T04:29:38.059Z,97.05
2018-11-11T04:32:04.984Z,96.89
2018-11-11T04:34:31.979Z,96.52
2018-11-11T04:36:58.843Z,97.36
2018-11-11T04:39:25.703Z,96.75
2018-11-11T04:41:52.627Z,96.32
2018-11-11T04:44:19.578Z,97.57
2018-11-11T04:46:46.519Z,96.59
2018-11-11T04:49:13.366Z,96.74
2018-11-11T04:51:40.315Z,96.16
2018-11-11T04:54:07.261Z,95.82
2018-11-11T04:56:34.239Z,96.81
2018-11-11T04:59:01.139Z,97.86
2018-11-11T05:01:28.111Z,97.71
2018-11-11T05:03:55.023Z,97.45
2018-11-11T05:06:21.874Z,96.58
2018-11-11T05:08:48.824Z,96.51
2018-11-11T05:11:15.767Z,96.95
2018-11-11T05:13:42.739Z,96.86
2018-11-11T05:16:09.570Z,96.79
2018-11-11T05:18:36.487Z,96.75
2018-11-11T05:21:03.338Z,96.48
2018-11-11T05:23:30.196Z,97.19
2018-11-11T05:25:57.155Z,97.07
2018-11-11T05:28:24.072Z,97.10
2018-11-11T05:30:51.056Z,96.86
2018-11-11T05:33:17.961Z,97.84
2018-11-11T05:35:44.923Z,96.59
2018-11-11T05:38:11.847Z,96.08
2018-11-11T05:40:38.836Z,96.78
2018-11-11T05:43:05.738Z,97.02
2018-11-11T05:45:32.682Z,98.31
2018-11-11T05:47:59.634Z,98.97
2018-11-11T05:50:26.629Z,100.00
2018-11-11T05:52:53.518Z,100.00
2018-11-11T05:55:20.370Z,100.00
2018-11-11T05:57:47.306Z,100.00
2018-11-11T06:00:15.553Z,100.00
2018-11-11T06:02:42.732Z,100.00
2018-11-11T06:05:10.907Z,100.00
2018-11-11T06:07:37.862Z,100.00
2018-11-11T06:10:06.003Z,100.00
2018-11-11T06:12:32.887Z,100.00
2018-11-11T06:14:59.819Z,100.00
2018-11-11T06:17:26.759Z,100.00
2018-11-11T06:19:53.703Z,100.00
2018-11-11T06:22:20.643Z,100.00
2018-11-11T06:24:47.728Z,98.48
2018-11-11T06:27:14.642Z,98.75
2018-11-11T06:29:41.621Z,98.30
2018-11-11T06:32:08.543Z,97.60
2018-11-11T06:34:35.567Z,97.09
2018-11-11T06:37:02.427Z,96.93
2018-11-11T06:39:29.374Z,96.74
2018-11-11T06:41:56.310Z,96.37
2018-11-11T06:44:23.255Z,96.99
2018-11-11T06:46:50.202Z,97.25
2018-11-11T06:49:17.135Z,97.37
2018-11-11T06:51:44.138Z,96.56
2018-11-11T06:54:11.044Z,97.05
2018-11-11T06:56:37.974Z,97.30
2018-11-11T06:59:04.987Z,97.24
2018-11-11T07:01:31.894Z,96.89
2018-11-11T07:04:00.872Z,95.38
2018-11-11T07:06:28.210Z,95.95
2018-11-11T07:08:55.178Z,96.14
2018-11-11T07:11:22.091Z,96.51
2018-11-11T07:13:49.040Z,96.08
2018-11-11T07:16:15.898Z,96.09
2018-11-11T07:18:43.858Z,95.99
2018-11-11T07:21:10.810Z,96.75
2018-11-11T07:23:37.799Z,97.27
2018-11-11T07:26:04.795Z,98.16
2018-11-11T07:28:31.739Z,96.85
2018-11-11T07:30:58.738Z,97.72
2018-11-11T07:33:26.170Z,97.96
2018-11-11T07:35:53.114Z,96.33
2018-11-11T07:38:20.046Z,96.73
2018-11-11T07:40:46.985Z,97.09
2018-11-11T07:43:13.915Z,95.80
2018-11-11T07:45:40.795Z,95.99
2018-11-11T07:48:07.707Z,96.50
2018-11-11T07:50:34.674Z,96.37
2018-11-11T07:53:01.601Z,97.44
2018-11-11T07:55:28.538Z,96.95
2018-11-11T07:57:55.535Z,96.36
2018-11-11T08:00:22.453Z,97.18
2018-11-11T08:02:49.437Z,97.42
2018-11-11T08:05:16.358Z,97.55
2018-11-11T08:07:43.281Z,96.86
2018-11-11T08:10:22.115Z,97.59
2018-11-11T08:12:49.074Z,97.17
2018-11-11T08:15:15.979Z,97.58
2018-11-11T08:17:42.926Z,97.20
2018-11-11T08:20:09.909Z,96.86
2018-11-11T08:22:36.819Z,96.67
2018-11-11T08:25:03.692Z,97.15
2018-11-11T08:27:30.647Z,95.89
2018-11-11T08:29:57.589Z,96.65
2018-11-11T08:32:24.576Z,95.49
2018-11-11T08:34:51.468Z,95.89
2018-11-11T08:37:18.420Z,96.33
2018-11-11T08:39:45.358Z,95.41
2018-11-11T08:42:12.295Z,94.64
2018-11-11T08:44:39.243Z,94.68
2018-11-11T08:47:06.246Z,93.38
2018-11-11T08:49:33.166Z,94.35
2018-11-11T08:52:00.075Z,94.23
2018-11-11T08:54:28.799Z,93.55
2018-11-11T08:56:55.720Z,93.13
2018-11-11T08:59:22.680Z,93.66
2018-11-11T09:01:50.631Z,93.28
2018-11-11T09:04:17.660Z,93.25
2018-11-11T09:06:45.579Z,91.07
2018-11-11T09:09:13.423Z,90.76
2018-11-11T09:11:40.657Z,92.20
2018-11-11T09:14:08.527Z,90.99
2018-11-11T09:16:35.476Z,90.24
2018-11-11T09:19:02.427Z,89.93
2018-11-11T09:21:31.416Z,89.86
2018-11-11T09:23:58.257Z,89.72
2018-11-11T09:26:25.207Z,89.01
2018-11-11T09:28:52.145Z,89.17
2018-11-11T09:31:19.087Z,88.33
2018-11-11T09:33:46.034Z,87.80
2018-11-11T09:36:12.984Z,87.56
2018-11-11T09:38:39.919Z,87.71
2018-11-11T09:41:07.670Z,87.70
2018-11-11T09:43:34.687Z,85.95
2018-11-11T09:46:01.567Z,85.90
2018-11-11T09:48:28.512Z,85.75
2018-11-11T09:50:55.463Z,85.08
2018-11-11T09:53:22.405Z,85.30
2018-11-11T09:55:50.205Z,84.82
2018-11-11T09:58:17.118Z,84.92
2018-11-11T10:00:44.602Z,84.77
2018-11-11T10:03:17.259Z,84.57
2018-11-11T10:06:04.382Z,83.10
2018-11-11T10:08:50.923Z,81.73
2018-11-11T10:11:30.226Z,81.99
2018-11-11T10:14:02.767Z,80.83
2018-11-11T10:16:34.249Z,82.64
2018-11-11T10:19:20.778Z,81.22
2018-11-11T10:22:07.300Z,81.62
2018-11-11T10:24:38.314Z,78.56
2018-11-11T10:27:13.934Z,79.05
2018-11-11T10:29:46.751Z,78.70
2018-11-11T10:32:30.639Z,78.80
2018-11-11T10:35:05.627Z,79.02
2018-11-11T10:37:38.188Z,78.72
2018-11-11T10:40:10.110Z,77.70
2018-11-11T10:42:46.075Z,76.01
2018-11-11T10:45:35.400Z,76.61
2018-11-11T10:48:06.575Z,75.75
2018-11-11T10:50:51.764Z,75.11
2018-11-11T10:53:18.707Z,76.19
2018-11-11T10:55:47.627Z,75.36
2018-11-11T10:58:14.600Z,76.11
2018-11-11T11:00:48.313Z,75.95
2018-11-11T11:03:35.223Z,74.31
2018-11-11T11:06:02.639Z,74.76
2018-11-11T11:08:29.677Z,72.29
2018-11-11T11:10:56.735Z,72.50
2018-11-11T11:13:25.199Z,72.75
2018-11-11T11:15:52.047Z,70.20
2018-11-11T11:18:18.975Z,71.55
2018-11-11T11:20:45.926Z,70.78
2018-11-11T11:23:12.875Z,70.36
2018-11-11T11:25:39.852Z,69.93
2018-11-11T11:28:06.771Z,68.07
2018-11-11T11:30:33.694Z,69.28
2018-11-11T11:33:00.556Z,67.86
2018-11-11T11:35:27.559Z,68.37
2018-11-11T11:37:54.495Z,67.29
2018-11-11T11:40:21.468Z,66.82
2018-11-11T11:42:48.328Z,67.84
2018-11-11T11:45:15.298Z,67.42
2018-11-11T11:47:42.432Z,67.72
2018-11-11T11:50:10.484Z,65.02
2018-11-11T11:52:37.487Z,66.86
2018-11-11T11:55:04.839Z,65.28
2018-11-11T11:57:31.745Z,65.83
2018-11-11T11:59:58.695Z,65.65
2018-11-11T12:02:25.635Z,65.74
2018-11-11T12:04:52.563Z,64.74
2018-11-11T12:07:19.560Z,65.40
2018-11-11T12:09:46.489Z,65.95
2018-11-11T12:12:13.412Z,65.55
2018-11-11T12:14:40.355Z,65.55
2018-11-11T12:17:07.345Z,66.04
2018-11-11T12:19:34.243Z,65.18
2018-11-11T12:22:01.179Z,64.66
2018-11-11T12:24:28.138Z,64.15
2018-11-11T12:26:55.071Z,64.81
2018-11-11T12:29:22.050Z,64.24
2018-11-11T12:31:48.969Z,64.57
2018-11-11T12:34:15.923Z,64.49
2018-11-11T12:36:42.869Z,63.92
2018-11-11T12:39:11.188Z,63.25
2018-11-11T12:41:37.979Z,63.70
2018-11-11T12:44:04.919Z,62.75
2018-11-11T12:46:31.905Z,62.55
2018-11-11T12:48:58.857Z,62.97
2018-11-11T12:51:28.051Z,64.18
2018-11-11T12:53:56.527Z,64.12
2018-11-11T12:56:24.317Z,63.48
2018-11-11T12:58:52.071Z,64.84
2018-11-11T13:01:24.959Z,65.65
2018-11-11T13:03:53.234Z,63.55
2018-11-11T13:06:21.008Z,63.98
2018-11-11T13:08:52.223Z,62.24
2018-11-11T13:11:20.648Z,62.95
2018-11-11T13:13:48.592Z,63.13
2018-11-11T13:16:16.683Z,62.54
2018-11-11T13:18:45.511Z,62.24
2018-11-11T13:21:15.041Z,62.05
2018-11-11T13:23:44.063Z,61.61
2018-11-11T13:26:12.629Z,62.08
2018-11-11T13:28:40.111Z,61.49
2018-11-11T13:31:09.185Z,60.71
2018-11-11T13:33:37.176Z,61.91
2018-11-11T13:36:06.327Z,61.97
2018-11-11T13:38:35.115Z,61.56
2018-11-11T13:41:05.055Z,61.42
2018-11-11T13:43:34.353Z,61.28
2018-11-11T13:46:02.345Z,61.56
2018-11-11T13:48:30.238Z,61.65
2018-11-11T13:50:58.773Z,60.85
2018-11-11T13:53:28.223Z,61.85
2018-11-11T13:55:56.423Z,60.77
2018-11-11T13:58:24.327Z,60.94
2018-11-11T14:00:52.555Z,61.51
2018-11-11T14:03:20.559Z,61.30
2018-11-11T14:05:49.423Z,60.87
2018-11-11T14:08:17.896Z,61.05
2018-11-11T14:10:47.331Z,61.52
2018-11-11T14:13:15.441Z,61.06
2018-11-11T14:15:43.343Z,60.59
2018-11-11T14:18:13.700Z,61.30
2018-11-11T14:20:42.234Z,61.62
2018-11-11T14:23:10.843Z,61.40
2018-11-11T14:25:43.953Z,61.47
2018-11-11T14:28:12.471Z,61.23
2018-11-11T14:30:40.666Z,60.29
2018-11-11T14:33:12.082Z,62.16
2018-11-11T14:35:41.455Z,60.95
2018-11-11T14:38:10.404Z,62.45
2018-11-11T14:40:38.343Z,61.73
2018-11-11T14:43:06.701Z,62.17
2018-11-11T14:45:34.589Z,61.89
2018-11-11T14:48:03.228Z,62.04
2018-11-11T14:50:30.519Z,62.41
2018-11-11T14:53:03.792Z,62.40
2018-11-11T14:55:36.199Z,62.95
2018-11-11T14:58:06.158Z,63.29
2018-11-11T15:00:34.834Z,63.23
2018-11-11T15:03:10.172Z,63.15
2018-11-11T15:05:39.002Z,64.78
2018-11-11T15:08:07.215Z,64.57
2018-11-11T15:10:35.050Z,65.50
2018-11-11T15:13:06.596Z,65.83
2018-11-11T15:15:35.167Z,65.70
2018-11-11T15:18:04.747Z,66.44
2018-11-11T15:20:34.386Z,66.56
2018-11-11T15:23:02.807Z,67.50
2018-11-11T15:25:30.795Z,67.39
2018-11-11T15:27:58.011Z,68.33
2018-11-11T15:30:30.984Z,67.48
2018-11-11T15:32:58.990Z,67.80
2018-11-11T15:35:27.854Z,68.67
2018-11-11T15:37:56.179Z,69.89
2018-11-11T15:40:25.861Z,68.50
2018-11-11T15:42:54.288Z,69.62
2018-11-11T15:45:26.191Z,70.01
2018-11-11T15:47:55.563Z,69.73
2018-11-11T15:50:26.428Z,70.27
2018-11-11T15:52:57.399Z,70.80
2018-11-11T15:55:26.710Z,70.67
2018-11-11T15:57:56.455Z,72.00
2018-11-11T16:00:33.403Z,71.93
2018-11-11T16:03:01.483Z,73.02
2018-11-11T16:05:29.927Z,73.33
2018-11-11T16:07:58.951Z,70.50
2018-11-11T16:10:30.296Z,72.89
2018-11-11T16:12:59.474Z,73.92
2018-11-11T16:15:29.650Z,74.14
2018-11-11T16:17:59.159Z,74.77
2018-11-11T16:20:30.420Z,74.21
2018-11-11T16:23:00.835Z,74.90
2018-11-11T16:25:30.145Z,75.62
2018-11-11T16:28:03.859Z,75.72
2018-11-11T16:30:33.957Z,76.72
2018-11-11T16:33:04.291Z,77.71
2018-11-11T16:35:40.758Z,78.23
2018-11-11T16:38:10.515Z,77.82
2018-11-11T16:40:40.705Z,78.32
2018-11-11T16:43:13.947Z,77.70
2018-11-11T16:45:47.503Z,78.87
2018-11-11T16:48:19.056Z,79.34
2018-11-11T16:50:49.287Z,79.14
2018-11-11T16:55:50.290Z,80.87
2018-11-11T16:58:21.800Z,81.29
2018-11-11T17:00:50.471Z,77.07
2018-11-11T17:03:20.814Z,79.50
2018-11-11T17:05:54.437Z,80.83
2018-11-11T17:08:21.368Z,80.38
2018-11-11T17:10:48.291Z,78.67
2018-11-11T17:13:17.098Z,80.28
2018-11-11T17:15:47.470Z,80.75
2018-11-11T17:18:17.899Z,81.91
2018-11-11T17:20:44.847Z,83.24
2018-11-11T17:23:11.736Z,82.37
2018-11-11T17:25:40.643Z,83.48
2018-11-11T17:28:07.684Z,82.37
2018-11-11T17:30:39.192Z,81.69
2018-11-11T17:33:06.304Z,81.70
2018-11-11T17:35:35.527Z,79.47
2018-11-11T17:38:06.061Z,82.27
2018-11-11T17:40:33.198Z,83.47
2018-11-11T17:43:00.694Z,83.22
2018-11-11T17:45:27.698Z,83.23
2018-11-11T17:47:58.555Z,84.79
2018-11-11T17:50:30.923Z,85.12
2018-11-11T17:53:02.353Z,84.69
2018-11-11T17:55:30.251Z,85.21
2018-11-11T17:58:01.059Z,85.79
2018-11-11T18:00:31.971Z,87.15
2018-11-11T18:03:01.739Z,84.44
2018-11-11T18:05:31.451Z,81.65
2018-11-11T18:08:00.343Z,84.88
2018-11-11T18:10:28.754Z,85.42
2018-11-11T18:12:56.319Z,85.35
2018-11-11T18:15:26.319Z,85.02
2018-11-11T18:17:53.913Z,84.55
2018-11-11T18:20:28.848Z,84.01
2018-11-11T18:22:56.816Z,81.32
2018-11-11T18:25:23.759Z,83.31
2018-11-11T18:27:51.908Z,84.71
2018-11-11T18:30:21.939Z,82.62
2018-11-11T18:32:51.822Z,84.42
2018-11-11T18:35:20.372Z,84.83
2018-11-11T18:37:48.092Z,84.45
2018-11-11T18:40:17.766Z,86.10
2018-11-11T18:42:46.414Z,85.60
2018-11-11T18:45:17.099Z,86.17
2018-11-11T18:47:45.567Z,82.23
2018-11-11T18:50:18.451Z,84.25
2018-11-11T18:52:45.876Z,84.76
2018-11-11T18:55:13.896Z,84.79
2018-11-11T18:57:42.240Z,84.17
2018-11-11T19:00:14.593Z,82.57
2018-11-11T19:02:44.568Z,85.08
2018-11-11T19:05:13.591Z,89.09
2018-11-11T19:07:42.801Z,88.00
2018-11-11T19:10:16.189Z,87.91
2018-11-11T19:12:55.918Z,87.45
2018-11-11T19:15:27.546Z,88.49
2018-11-11T19:17:55.203Z,86.53
2018-11-11T19:20:25.465Z,87.42
2018-11-11T19:22:53.092Z,86.91
2018-11-11T19:25:21.968Z,86.69
2018-11-11T19:27:51.746Z,86.09
2018-11-11T19:30:21.552Z,86.92
2018-11-11T19:32:49.389Z,87.62
2018-11-11T19:35:17.589Z,86.85
2018-11-11T19:37:47.592Z,85.50
2018-11-11T19:40:17.994Z,87.77
2018-11-11T19:42:45.530Z,89.03
2018-11-11T19:45:15.403Z,88.16
2018-11-11T19:47:44.075Z,88.09
2018-11-11T19:50:14.659Z,87.36
2018-11-11T19:52:46.234Z,85.13
2018-11-11T19:55:17.254Z,88.22
2018-11-11T19:57:46.598Z,88.23
2018-11-11T20:00:16.581Z,88.31
2018-11-11T20:02:45.196Z,89.07
2018-11-11T20:05:13.415Z,90.04
2018-11-11T20:07:41.529Z,91.01
2018-11-11T20:10:12.876Z,91.85
2018-11-11T20:12:40.193Z,89.96
2018-11-11T20:15:15.055Z,88.43
2018-11-11T20:17:50.798Z,89.90
2018-11-11T20:20:21.483Z,88.79
2018-11-11T20:22:48.996Z,88.88
2018-11-11T20:25:17.574Z,88.49
2018-11-11T20:27:45.052Z,87.16
2018-11-11T20:30:15.238Z,86.38
2018-11-11T20:32:42.237Z,84.99
2018-11-11T20:35:10.603Z,86.03
2018-11-11T20:37:38.423Z,86.07
2018-11-11T20:40:07.479Z,87.05
2018-11-11T20:42:34.367Z,86.72
2018-11-11T20:45:01.411Z,86.25
2018-11-11T20:47:28.354Z,86.87
2018-11-11T20:49:55.412Z,87.54
2018-11-11T20:52:22.268Z,86.59
2018-11-11T20:54:49.240Z,86.10
2018-11-11T20:57:16.131Z,86.65
2018-11-11T20:59:43.093Z,89.51
2018-11-11T21:02:10.019Z,89.34
2018-11-11T21:04:36.977Z,89.64
2018-11-11T21:07:05.986Z,90.47
2018-11-11T21:09:32.912Z,89.25
2018-11-11T21:11:59.847Z,89.51
2018-11-11T21:14:26.819Z,88.77
2018-11-11T21:16:53.735Z,88.42
2018-11-11T21:19:20.747Z,88.94
2018-11-11T21:21:47.675Z,89.40
2018-11-11T21:24:16.633Z,88.77
2018-11-11T21:26:43.578Z,88.22
2018-11-11T21:29:11.539Z,87.70
2018-11-11T21:31:38.478Z,88.34
2018-11-11T21:34:05.427Z,87.51
2018-11-11T21:36:32.375Z,87.98
2018-11-11T21:38:59.315Z,86.30
2018-11-11T21:41:26.258Z,86.91
2018-11-11T21:43:54.131Z,86.73
2018-11-11T21:46:20.983Z,87.51
2018-11-11T21:48:47.843Z,87.11
2018-11-11T21:51:14.863Z,87.22
2018-11-11T21:53:41.815Z,84.80
2018-11-11T21:56:09.082Z,86.30
2018-11-11T21:58:37.986Z,86.94
2018-11-11T22:01:05.252Z,87.63
2018-11-11T22:03:32.147Z,86.54
2018-11-11T22:06:00.213Z,84.05
2018-11-11T22:08:27.195Z,86.15
2018-11-11T22:10:54.180Z,87.10
2018-11-11T22:13:21.763Z,84.19
2018-11-11T22:15:48.929Z,83.01
2018-11-11T22:18:16.255Z,84.54
2018-11-11T22:20:43.203Z,85.82
2018-11-11T22:23:10.153Z,86.41
2018-11-11T22:25:37.103Z,86.83
2018-11-11T22:28:04.193Z,86.84
2018-11-11T22:30:30.895Z,86.61
2018-11-11T22:32:57.827Z,86.89
2018-11-11T22:35:24.775Z,87.34
2018-11-11T22:37:51.723Z,86.76
2018-11-11T22:40:18.667Z,88.26
2018-11-11T22:42:45.606Z,87.52
2018-11-11T22:45:13.778Z,87.85
2018-11-11T22:47:40.738Z,88.54
2018-11-11T22:50:10.327Z,87.29
2018-11-11T22:52:37.857Z,88.47
2018-11-11T22:55:05.031Z,88.71
2018-11-11T22:57:31.924Z,88.24
2018-11-11T22:59:58.884Z,87.75
2018-11-11T23:02:25.767Z,88.26
2018-11-11T23:04:53.148Z,88.59
2018-11-11T23:07:19.991Z,88.36
2018-11-11T23:09:48.848Z,89.60
2018-11-11T23:12:15.855Z,89.97
2018-11-11T23:14:42.762Z,89.87
2018-11-11T23:17:09.707Z,90.54
2018-11-11T23:19:36.637Z,91.02
2018-11-11T23:22:03.584Z,90.02
2018-11-11T23:24:30.576Z,89.28
2018-11-11T23:26:59.523Z,89.26
2018-11-11T23:29:27.395Z,89.40
2018-11-11T23:31:54.331Z,88.86
2018-11-11T23:34:21.184Z,89.34
2018-11-11T23:36:48.053Z,89.67
2018-11-11T23:39:14.979Z,88.95
2018-11-11T23:41:41.925Z,89.66
2018-11-11T23:44:09.260Z,89.71
2018-11-11T23:46:36.656Z,89.81
2018-11-11T23:49:03.669Z,89.91
2018-11-11T23:51:31.535Z,91.23
2018-11-11T23:53:58.466Z,90.50
2018-11-11T23:56:25.439Z,90.29
2018-11-11T23:58:53.456Z,89.28
